createdAt,value
2023-05-24T00:01:49.379Z,11.60
2023-05-24T00:04:20.002Z,11.60
2023-05-24T00:06:48.562Z,11.60
2023-05-24T00:09:16.879Z,11.60
2023-05-24T00:11:45.223Z,11.50
2023-05-24T00:14:13.590Z,11.60
2023-05-24T00:16:42.321Z,11.60
2023-05-24T00:19:11.347Z,11.60
2023-05-24T00:21:41.223Z,11.60
2023-05-24T00:24:11.162Z,11.60
2023-05-24T00:26:39.574Z,11.50
2023-05-24T00:29:07.892Z,11.50
2023-05-24T00:31:36.357Z,11.50
2023-05-24T00:34:05.533Z,11.40
2023-05-24T00:36:34.095Z,11.40
2023-05-24T00:39:04.403Z,11.40
2023-05-24T00:41:32.739Z,11.40
2023-05-24T00:44:01.083Z,11.40
2023-05-24T00:46:33.338Z,11.30
2023-05-24T00:49:02.505Z,11.30
2023-05-24T00:51:34.069Z,11.20
2023-05-24T00:54:03.950Z,11.20
2023-05-24T00:56:32.613Z,11.10
2023-05-24T00:59:01.785Z,11.10
2023-05-24T01:01:34.793Z,11.10
2023-05-24T01:04:04.032Z,11.00
2023-05-24T01:06:36.832Z,11.00
2023-05-24T01:09:19.758Z,11.00
2023-05-24T01:12:01.057Z,11.00
2023-05-24T01:14:36.767Z,11.00
2023-05-24T01:17:11.110Z,10.90
2023-05-24T01:19:53.139Z,10.90
2023-05-24T01:22:49.632Z,10.80
2023-05-24T01:25:33.703Z,10.80
2023-05-24T01:28:05.116Z,10.80
2023-05-24T01:30:34.332Z,10.70
2023-05-24T01:33:02.821Z,10.70
2023-05-24T01:35:31.203Z,10.70
2023-05-24T01:37:59.502Z,10.60
2023-05-24T01:40:27.778Z,10.60
2023-05-24T01:43:05.466Z,10.60
2023-05-24T01:45:41.014Z,10.60
2023-05-24T01:48:19.296Z,10.50
2023-05-24T01:50:53.551Z,10.50
2023-05-24T01:53:24.290Z,10.40
2023-05-24T01:55:56.471Z,10.40
2023-05-24T01:58:26.732Z,10.30
2023-05-24T02:00:57.272Z,10.30
2023-05-24T02:03:26.561Z,10.30
2023-05-24T02:05:54.839Z,10.30
2023-05-24T02:08:23.375Z,10.20
2023-05-24T02:10:53.281Z,10.20
2023-05-24T02:13:21.881Z,10.10
2023-05-24T02:15:51.850Z,10.10
2023-05-24T02:18:22.709Z,10.10
2023-05-24T02:20:51.311Z,10.00
2023-05-24T02:23:19.636Z,9.90
2023-05-24T02:25:47.980Z,9.90
2023-05-24T02:28:16.341Z,9.80
2023-05-24T02:30:45.287Z,9.90
2023-05-24T02:33:14.064Z,9.80
2023-05-24T02:35:43.730Z,9.80
2023-05-24T02:38:12.043Z,9.70
2023-05-24T02:40:40.697Z,9.60
2023-05-24T02:43:09.765Z,9.60
2023-05-24T02:45:38.024Z,9.50
2023-05-24T02:48:06.716Z,9.50
2023-05-24T02:50:35.127Z,9.50
2023-05-24T02:53:04.781Z,9.50
2023-05-24T02:55:33.721Z,9.40
2023-05-24T02:58:03.026Z,9.40
2023-05-24T03:00:32.626Z,9.40
2023-05-24T03:03:03.240Z,9.40
2023-05-24T03:05:31.746Z,9.30
2023-05-24T03:08:00.058Z,9.30
2023-05-24T03:10:29.941Z,9.30
2023-05-24T03:12:58.372Z,9.30
2023-05-24T03:15:26.792Z,9.30
2023-05-24T03:17:55.135Z,9.30
2023-05-24T03:20:23.891Z,9.30
2023-05-24T03:22:53.026Z,9.20
2023-05-24T03:25:22.083Z,9.20
2023-05-24T03:27:51.890Z,9.20
2023-05-24T03:30:21.009Z,9.30
2023-05-24T03:32:55.958Z,9.20
2023-05-24T03:35:24.806Z,9.20
2023-05-24T03:37:53.237Z,9.20
2023-05-24T03:40:22.370Z,9.20
2023-05-24T03:42:58.098Z,9.10
2023-05-24T03:45:55.677Z,9.10
2023-05-24T03:48:24.064Z,9.10
2023-05-24T03:50:53.493Z,9.10
2023-05-24T03:53:23.310Z,9.10
2023-05-24T03:55:52.097Z,9.10
2023-05-24T03:58:22.546Z,9.10
2023-05-24T04:00:51.956Z,9.10
2023-05-24T04:03:21.336Z,9.10
2023-05-24T04:05:49.715Z,9.10
2023-05-24T04:08:18.045Z,9.10
2023-05-24T04:10:46.256Z,9.10
2023-05-24T04:13:14.627Z,9.10
2023-05-24T04:15:44.364Z,9.10
2023-05-24T04:18:13.137Z,9.10
2023-05-24T04:20:41.997Z,9.10
2023-05-24T04:23:11.537Z,9.10
2023-05-24T04:25:40.037Z,9.10
2023-05-24T04:28:09.290Z,9.00
2023-05-24T04:30:37.716Z,9.10
2023-05-24T04:33:08.370Z,9.00
2023-05-24T04:35:36.724Z,9.00
2023-05-24T04:38:05.828Z,9.00
2023-05-24T04:40:34.348Z,9.00
2023-05-24T04:43:03.562Z,9.00
2023-05-24T04:45:33.072Z,9.00
2023-05-24T04:48:01.591Z,9.00
2023-05-24T04:50:31.401Z,9.10
2023-05-24T04:52:59.767Z,9.10
2023-05-24T04:55:28.132Z,9.10
2023-05-24T04:57:57.116Z,9.10
2023-05-24T05:00:25.394Z,9.10
2023-05-24T05:02:53.753Z,9.10
2023-05-24T05:05:22.349Z,9.20
2023-05-24T05:07:52.037Z,9.20
2023-05-24T05:10:22.351Z,9.20
2023-05-24T05:12:52.298Z,9.20
2023-05-24T05:15:22.320Z,9.20
2023-05-24T05:17:50.947Z,9.30
2023-05-24T05:20:19.794Z,9.30
2023-05-24T05:22:48.241Z,9.30
2023-05-24T05:25:17.977Z,9.40
2023-05-24T05:27:46.298Z,9.40
2023-05-24T05:30:14.969Z,9.40
2023-05-24T05:32:43.401Z,9.50
2023-05-24T05:35:11.890Z,9.60
2023-05-24T05:37:40.123Z,9.70
2023-05-24T05:40:09.356Z,9.70
2023-05-24T05:42:39.071Z,9.80
2023-05-24T05:45:08.831Z,9.90
2023-05-24T05:48:25.853Z,9.90
2023-05-24T05:57:03.272Z,10.20
2023-05-24T05:59:43.616Z,10.30
2023-05-24T06:02:32.845Z,10.30
2023-05-24T06:05:15.274Z,10.40
2023-05-24T06:08:15.466Z,10.50
2023-05-24T06:11:04.913Z,10.70
2023-05-24T06:13:46.342Z,10.80
2023-05-24T06:14:26.477Z,10.10
2023-05-24T06:16:36.837Z,10.90
2023-05-24T06:19:35.267Z,11.00
2023-05-24T06:25:59.772Z,11.30
2023-05-24T06:28:07.781Z,11.10
2023-05-24T06:29:38.024Z,11.40
2023-05-24T06:31:55.302Z,11.50
2023-05-24T06:34:58.362Z,11.60
2023-05-24T06:37:57.774Z,11.70
2023-05-24T06:40:29.942Z,11.90
2023-05-24T06:43:08.936Z,12.00
2023-05-24T06:45:58.520Z,12.10
2023-05-24T06:48:29.029Z,12.30
2023-05-24T06:50:58.244Z,12.40
2023-05-24T06:53:27.564Z,12.50
2023-05-24T06:55:59.919Z,12.60
2023-05-24T06:58:41.189Z,12.60
2023-05-24T07:01:34.416Z,12.70
2023-05-24T07:04:58.009Z,12.70
2023-05-24T07:07:26.850Z,13.00
2023-05-24T07:09:55.582Z,13.10
2023-05-24T07:12:24.778Z,13.30
2023-05-24T07:14:56.349Z,13.40
2023-05-24T07:17:32.711Z,13.70
2023-05-24T07:20:05.780Z,13.90
2023-05-24T07:22:34.463Z,14.00
2023-05-24T07:25:09.547Z,14.20
2023-05-24T07:27:38.735Z,14.50
2023-05-24T07:53:35.795Z,16.60
2023-05-24T07:56:12.805Z,16.90
2023-05-24T07:58:43.058Z,17.20
2023-05-24T08:01:11.810Z,17.40
2023-05-24T08:03:41.782Z,17.60
2023-05-24T08:06:11.773Z,18.10
2023-05-24T08:08:42.165Z,18.60
2023-05-24T08:11:11.011Z,19.00
2023-05-24T08:13:42.835Z,19.40
2023-05-24T08:16:18.657Z,19.90
2023-05-24T08:18:47.444Z,20.40
2023-05-24T08:21:16.653Z,20.60
2023-05-24T08:23:46.573Z,20.50
2023-05-24T08:26:16.831Z,20.50
2023-05-24T08:28:45.376Z,20.80
2023-05-24T08:31:13.995Z,21.30
2023-05-24T08:33:50.466Z,21.60
2023-05-24T08:36:26.647Z,21.90
2023-05-24T08:38:59.205Z,22.60
2023-05-24T08:41:37.758Z,22.80
2023-05-24T08:44:31.239Z,22.80
2023-05-24T08:47:08.342Z,22.70
2023-05-24T08:49:46.774Z,23.10
2023-05-24T08:53:03.307Z,23.20
2023-05-24T08:56:31.911Z,23.80
2023-05-24T08:59:23.108Z,24.00
2023-05-24T09:02:29.504Z,24.10
2023-05-24T09:05:32.895Z,24.60
2023-05-24T09:08:14.911Z,24.80
2023-05-24T09:11:08.141Z,24.90
2023-05-24T09:14:03.681Z,24.90
2023-05-24T09:16:46.063Z,25.10
2023-05-24T09:19:50.611Z,25.10
2023-05-24T10:16:13.924Z,25.90
2023-05-24T10:23:37.678Z,25.40
2023-05-24T11:12:16.194Z,26.70
2023-05-24T11:37:46.374Z,27.50
2023-05-24T11:41:25.546Z,27.10
2023-05-24T11:44:21.900Z,27.00
2023-05-24T11:47:31.362Z,27.10
2023-05-24T11:53:40.963Z,27.20
2023-05-24T11:56:16.846Z,27.10
2023-05-24T11:59:58.582Z,27.00
2023-05-24T12:03:45.228Z,26.80
2023-05-24T12:06:34.782Z,26.80
2023-05-24T12:09:16.406Z,26.60
2023-05-24T12:12:26.891Z,26.20
2023-05-24T12:15:18.744Z,25.50
2023-05-24T12:18:28.477Z,25.40
2023-05-24T12:21:34.802Z,25.40
2023-05-24T12:24:17.006Z,25.50
2023-05-24T12:27:23.294Z,25.40
2023-05-24T12:29:56.993Z,25.10
2023-05-24T12:33:17.439Z,25.00
2023-05-24T12:36:05.735Z,24.70
2023-05-24T12:38:44.555Z,24.60
2023-05-24T12:42:29.707Z,24.50
2023-05-24T12:46:10.360Z,24.30
2023-05-24T12:48:35.610Z,24.30
2023-05-24T12:51:04.619Z,23.90
2023-05-24T12:53:38.084Z,23.70
2023-05-24T12:56:09.560Z,23.70
2023-05-24T12:58:41.485Z,23.60
2023-05-24T13:01:16.798Z,23.50
2023-05-24T13:03:47.949Z,23.40
2023-05-24T13:06:19.025Z,23.40
2023-05-24T13:08:47.885Z,23.40
2023-05-24T13:11:19.024Z,23.60
2023-05-24T13:13:47.857Z,23.70
2023-05-24T13:16:28.546Z,23.70
2023-05-24T13:18:59.939Z,23.60
2023-05-24T13:21:29.581Z,23.40
2023-05-24T13:24:00.889Z,23.30
2023-05-24T13:26:39.930Z,23.30
2023-05-24T13:32:01.176Z,23.10
2023-05-24T13:34:35.695Z,23.00
2023-05-24T13:37:32.769Z,23.00
2023-05-24T13:40:04.307Z,23.10
2023-05-24T13:42:33.232Z,23.10
2023-05-24T13:45:05.398Z,23.10
2023-05-24T13:47:40.907Z,22.90
2023-05-24T13:50:11.271Z,22.90
2023-05-24T13:52:40.022Z,22.90
2023-05-24T13:55:11.320Z,22.80
2023-05-24T13:57:51.211Z,22.80
2023-05-24T14:00:32.180Z,22.80
2023-05-24T14:03:06.161Z,22.80
2023-05-24T14:05:35.087Z,22.80
2023-05-24T14:08:07.074Z,22.80
2023-05-24T14:16:18.891Z,22.80
2023-05-24T14:18:50.388Z,22.80
2023-05-24T15:53:24.286Z,21.50
2023-05-24T16:33:24.318Z,20.90
2023-05-24T19:53:29.491Z,16.70
2023-05-24T21:08:29.081Z,15.10
2023-05-24T21:10:57.863Z,15.10
2023-05-24T21:14:17.318Z,15.00
2023-05-24T21:16:45.898Z,15.00
2023-05-24T21:19:14.467Z,14.90
2023-05-24T21:21:42.940Z,14.90
2023-05-24T21:24:12.859Z,14.80
2023-05-24T21:26:41.362Z,14.80
2023-05-24T21:29:11.924Z,14.70
2023-05-24T21:31:40.421Z,14.70
2023-05-24T21:34:08.844Z,14.70
2023-05-24T21:36:37.632Z,14.70
2023-05-24T21:39:08.226Z,14.70
2023-05-24T21:41:38.903Z,14.60
2023-05-24T21:44:08.237Z,14.60
2023-05-24T21:46:37.275Z,14.50
2023-05-24T21:49:05.694Z,14.50
2023-05-24T21:51:34.096Z,14.50
2023-05-24T21:54:02.732Z,14.50
2023-05-24T21:56:31.184Z,14.50
2023-05-24T21:59:00.991Z,14.40
2023-05-24T22:01:29.343Z,14.40
2023-05-24T22:03:57.820Z,14.30
2023-05-24T22:06:26.323Z,14.30
2023-05-24T22:08:55.544Z,14.30
2023-05-24T22:11:23.890Z,14.30
2023-05-24T22:13:52.185Z,14.30
2023-05-24T22:16:21.957Z,14.20
2023-05-24T22:18:54.292Z,14.20
2023-05-24T22:21:22.875Z,14.10
2023-05-24T22:23:54.304Z,14.10
2023-05-24T22:26:22.805Z,14.10
2023-05-24T22:28:54.942Z,14.00
2023-05-24T22:31:27.662Z,14.00
2023-05-24T22:33:56.288Z,13.90
2023-05-24T22:36:24.619Z,13.90
2023-05-24T22:38:53.081Z,13.90
2023-05-24T22:41:23.607Z,13.90
2023-05-24T22:43:52.002Z,13.90
2023-05-24T22:46:22.117Z,13.90
2023-05-24T22:48:52.977Z,13.90
2023-05-24T22:51:21.399Z,13.80
2023-05-24T22:53:52.392Z,13.80
2023-05-24T22:56:20.923Z,13.80
2023-05-24T22:58:49.354Z,13.70
2023-05-24T23:01:17.829Z,13.60
2023-05-24T23:03:46.408Z,13.60
2023-05-24T23:06:17.612Z,13.50
2023-05-24T23:08:47.767Z,13.60
2023-05-24T23:11:17.326Z,13.50
2023-05-24T23:13:46.254Z,13.50
2023-05-24T23:16:17.977Z,13.50
2023-05-24T23:18:46.387Z,13.50
2023-05-24T23:21:16.803Z,13.40
2023-05-24T23:23:46.190Z,13.40
2023-05-24T23:26:14.635Z,13.40
2023-05-24T23:28:43.235Z,13.40
2023-05-24T23:31:11.765Z,13.30
2023-05-24T23:33:40.178Z,13.30
2023-05-24T23:36:09.978Z,13.30
2023-05-24T23:38:39.940Z,13.20
2023-05-24T23:41:08.325Z,13.10
2023-05-24T23:43:36.698Z,13.10
2023-05-24T23:46:05.133Z,13.10
2023-05-24T23:48:33.603Z,13.00
2023-05-24T23:51:02.051Z,13.10
2023-05-24T23:53:30.576Z,13.00
2023-05-24T23:56:00.435Z,13.00
2023-05-24T23:58:28.827Z,12.90
